sensor_id;sensor_type;location;lat;lon;timestamp;temperature;humidity
48936;DHT22;34745;52.276;10.528;2023-11-19T00:00:55;5.90;99.90
48936;DHT22;34745;52.276;10.528;2023-11-19T00:03:22;5.90;99.90
48936;DHT22;34745;52.276;10.528;2023-11-19T00:05:49;5.90;99.90
48936;DHT22;34745;52.276;10.528;2023-11-19T00:08:17;5.90;99.90
48936;DHT22;34745;52.276;10.528;2023-11-19T00:10:44;6.00;99.90
48936;DHT22;34745;52.276;10.528;2023-11-19T00:13:13;5.90;99.90
48936;DHT22;34745;52.276;10.528;2023-11-19T00:15:42;5.90;99.90
48936;DHT22;34745;52.276;10.528;2023-11-19T00:18:09;6.00;99.90
48936;DHT22;34745;52.276;10.528;2023-11-19T00:20:36;5.90;99.90
48936;DHT22;34745;52.276;10.528;2023-11-19T00:23:03;6.00;99.90
48936;DHT22;34745;52.276;10.528;2023-11-19T00:25:30;6.00;99.90
48936;DHT22;34745;52.276;10.528;2023-11-19T00:27:57;6.00;99.90
48936;DHT22;34745;52.276;10.528;2023-11-19T00:30:24;6.00;99.90
48936;DHT22;34745;52.276;10.528;2023-11-19T00:32:53;6.00;99.90
48936;DHT22;34745;52.276;10.528;2023-11-19T00:35:20;6.10;99.90
48936;DHT22;34745;52.276;10.528;2023-11-19T00:37:47;6.10;99.90
48936;DHT22;34745;52.276;10.528;2023-11-19T00:40:15;6.10;99.90
48936;DHT22;34745;52.276;10.528;2023-11-19T00:42:44;6.10;99.90
48936;DHT22;34745;52.276;10.528;2023-11-19T00:45:11;6.20;99.90
48936;DHT22;34745;52.276;10.528;2023-11-19T00:47:40;6.20;99.90
48936;DHT22;34745;52.276;10.528;2023-11-19T00:50:09;6.30;99.90
48936;DHT22;34745;52.276;10.528;2023-11-19T00:52:37;6.30;99.90
48936;DHT22;34745;52.276;10.528;2023-11-19T00:55:05;6.30;99.90
48936;DHT22;34745;52.276;10.528;2023-11-19T00:57:33;6.30;99.90
48936;DHT22;34745;52.276;10.528;2023-11-19T01:00:01;6.20;99.90
48936;DHT22;34745;52.276;10.528;2023-11-19T01:02:29;6.30;99.90
48936;DHT22;34745;52.276;10.528;2023-11-19T01:04:56;6.20;99.90
48936;DHT22;34745;52.276;10.528;2023-11-19T01:07:25;6.40;99.90
48936;DHT22;34745;52.276;10.528;2023-11-19T01:09:53;6.30;99.90
48936;DHT22;34745;52.276;10.528;2023-11-19T01:12:20;6.10;99.90
48936;DHT22;34745;52.276;10.528;2023-11-19T01:14:48;6.30;99.90
48936;DHT22;34745;52.276;10.528;2023-11-19T01:17:15;6.30;99.90
48936;DHT22;34745;52.276;10.528;2023-11-19T01:19:43;6.40;99.90
48936;DHT22;34745;52.276;10.528;2023-11-19T01:22:10;6.40;99.90
48936;DHT22;34745;52.276;10.528;2023-11-19T01:24:39;6.40;99.90
48936;DHT22;34745;52.276;10.528;2023-11-19T01:27:06;6.40;99.90
48936;DHT22;34745;52.276;10.528;2023-11-19T01:29:33;6.40;99.90
48936;DHT22;34745;52.276;10.528;2023-11-19T01:32:00;6.50;99.90
48936;DHT22;34745;52.276;10.528;2023-11-19T01:34:27;6.50;99.90
48936;DHT22;34745;52.276;10.528;2023-11-19T01:36:54;6.50;99.90
48936;DHT22;34745;52.276;10.528;2023-11-19T01:39:21;6.60;99.90
48936;DHT22;34745;52.276;10.528;2023-11-19T01:41:50;6.60;99.90
48936;DHT22;34745;52.276;10.528;2023-11-19T01:44:17;6.60;99.90
48936;DHT22;34745;52.276;10.528;2023-11-19T01:46:45;6.80;99.90
48936;DHT22;34745;52.276;10.528;2023-11-19T01:49:17;6.70;99.90
48936;DHT22;34745;52.276;10.528;2023-11-19T01:51:47;6.70;99.90
48936;DHT22;34745;52.276;10.528;2023-11-19T01:54:14;6.70;99.90
48936;DHT22;34745;52.276;10.528;2023-11-19T01:56:42;6.80;99.90
48936;DHT22;34745;52.276;10.528;2023-11-19T01:59:12;6.80;99.90
48936;DHT22;34745;52.276;10.528;2023-11-19T02:01:41;6.80;99.90
48936;DHT22;34745;52.276;10.528;2023-11-19T02:04:09;6.90;99.90
48936;DHT22;34745;52.276;10.528;2023-11-19T02:06:40;6.80;99.90
48936;DHT22;34745;52.276;10.528;2023-11-19T02:09:08;6.90;99.90
48936;DHT22;34745;52.276;10.528;2023-11-19T02:11:36;6.80;99.90
48936;DHT22;34745;52.276;10.528;2023-11-19T02:14:06;6.90;99.90
48936;DHT22;34745;52.276;10.528;2023-11-19T02:16:35;7.00;99.90
48936;DHT22;34745;52.276;10.528;2023-11-19T02:19:02;7.10;99.90
48936;DHT22;34745;52.276;10.528;2023-11-19T02:21:30;7.20;99.90
48936;DHT22;34745;52.276;10.528;2023-11-19T02:23:58;7.20;99.90
48936;DHT22;34745;52.276;10.528;2023-11-19T02:26:40;7.40;99.90
48936;DHT22;34745;52.276;10.528;2023-11-19T02:29:11;7.50;99.90
48936;DHT22;34745;52.276;10.528;2023-11-19T02:31:38;7.60;99.90
48936;DHT22;34745;52.276;10.528;2023-11-19T02:34:05;7.70;99.90
48936;DHT22;34745;52.276;10.528;2023-11-19T02:36:32;7.80;99.90
48936;DHT22;34745;52.276;10.528;2023-11-19T02:38:59;7.90;99.90
48936;DHT22;34745;52.276;10.528;2023-11-19T02:41:26;8.00;99.90
48936;DHT22;34745;52.276;10.528;2023-11-19T02:43:53;8.10;99.90
48936;DHT22;34745;52.276;10.528;2023-11-19T02:46:22;8.10;99.90
48936;DHT22;34745;52.276;10.528;2023-11-19T02:48:49;8.20;99.90
48936;DHT22;34745;52.276;10.528;2023-11-19T02:51:16;8.20;99.90
48936;DHT22;34745;52.276;10.528;2023-11-19T02:53:45;8.20;99.90
48936;DHT22;34745;52.276;10.528;2023-11-19T02:56:15;8.30;99.90
48936;DHT22;34745;52.276;10.528;2023-11-19T02:58:47;8.20;99.90
48936;DHT22;34745;52.276;10.528;2023-11-19T03:01:22;8.20;99.90
48936;DHT22;34745;52.276;10.528;2023-11-19T03:03:56;8.20;99.90
48936;DHT22;34745;52.276;10.528;2023-11-19T03:06:25;8.30;99.90
48936;DHT22;34745;52.276;10.528;2023-11-19T03:08:52;8.40;99.90
48936;DHT22;34745;52.276;10.528;2023-11-19T03:11:19;8.30;99.90
48936;DHT22;34745;52.276;10.528;2023-11-19T03:13:47;8.30;99.90
48936;DHT22;34745;52.276;10.528;2023-11-19T03:16:14;8.30;99.90
48936;DHT22;34745;52.276;10.528;2023-11-19T03:18:43;8.20;99.90
48936;DHT22;34745;52.276;10.528;2023-11-19T03:21:10;8.30;99.90
48936;DHT22;34745;52.276;10.528;2023-11-19T03:23:37;8.30;99.90
48936;DHT22;34745;52.276;10.528;2023-11-19T03:26:07;8.30;99.90
48936;DHT22;34745;52.276;10.528;2023-11-19T03:28:35;8.30;99.90
48936;DHT22;34745;52.276;10.528;2023-11-19T03:31:04;8.30;99.90
48936;DHT22;34745;52.276;10.528;2023-11-19T03:33:34;8.30;99.90
48936;DHT22;34745;52.276;10.528;2023-11-19T03:36:04;8.30;99.90
48936;DHT22;34745;52.276;10.528;2023-11-19T03:38:31;8.30;99.90
48936;DHT22;34745;52.276;10.528;2023-11-19T03:40:59;8.30;99.90
48936;DHT22;34745;52.276;10.528;2023-11-19T03:43:26;8.40;99.90
48936;DHT22;34745;52.276;10.528;2023-11-19T03:45:54;8.50;99.90
48936;DHT22;34745;52.276;10.528;2023-11-19T03:48:21;8.50;99.90
48936;DHT22;34745;52.276;10.528;2023-11-19T03:50:49;8.50;99.90
48936;DHT22;34745;52.276;10.528;2023-11-19T03:53:17;8.60;99.90
48936;DHT22;34745;52.276;10.528;2023-11-19T03:55:45;8.60;99.90
48936;DHT22;34745;52.276;10.528;2023-11-19T03:58:13;8.50;99.90
48936;DHT22;34745;52.276;10.528;2023-11-19T04:00:40;8.60;99.90
48936;DHT22;34745;52.276;10.528;2023-11-19T04:03:07;8.60;99.90
48936;DHT22;34745;52.276;10.528;2023-11-19T04:05:34;8.70;99.90
48936;DHT22;34745;52.276;10.528;2023-11-19T04:08:02;8.70;99.90
48936;DHT22;34745;52.276;10.528;2023-11-19T04:10:30;8.70;99.90
48936;DHT22;34745;52.276;10.528;2023-11-19T04:12:57;8.70;99.90
48936;DHT22;34745;52.276;10.528;2023-11-19T04:15:24;8.80;99.90
48936;DHT22;34745;52.276;10.528;2023-11-19T04:17:51;8.80;99.90
48936;DHT22;34745;52.276;10.528;2023-11-19T04:20:18;8.80;99.90
48936;DHT22;34745;52.276;10.528;2023-11-19T04:22:45;8.80;99.90
48936;DHT22;34745;52.276;10.528;2023-11-19T04:25:13;8.80;99.90
48936;DHT22;34745;52.276;10.528;2023-11-19T04:27:43;8.80;99.90
48936;DHT22;34745;52.276;10.528;2023-11-19T04:30:11;8.80;99.90
48936;DHT22;34745;52.276;10.528;2023-11-19T04:32:38;8.80;99.90
48936;DHT22;34745;52.276;10.528;2023-11-19T04:35:06;8.80;99.90
48936;DHT22;34745;52.276;10.528;2023-11-19T04:37:34;8.90;99.90
48936;DHT22;34745;52.276;10.528;2023-11-19T04:40:01;8.90;99.90
48936;DHT22;34745;52.276;10.528;2023-11-19T04:42:29;8.90;99.90
48936;DHT22;34745;52.276;10.528;2023-11-19T04:44:57;8.90;99.90
48936;DHT22;34745;52.276;10.528;2023-11-19T04:47:24;8.90;99.90
48936;DHT22;34745;52.276;10.528;2023-11-19T04:49:51;8.90;99.90
48936;DHT22;34745;52.276;10.528;2023-11-19T04:52:18;9.00;99.90
48936;DHT22;34745;52.276;10.528;2023-11-19T04:54:45;9.10;99.90
48936;DHT22;34745;52.276;10.528;2023-11-19T04:57:12;9.00;99.90
48936;DHT22;34745;52.276;10.528;2023-11-19T04:59:39;9.00;99.90
48936;DHT22;34745;52.276;10.528;2023-11-19T05:02:09;9.10;99.90
48936;DHT22;34745;52.276;10.528;2023-11-19T05:04:36;9.10;99.90
48936;DHT22;34745;52.276;10.528;2023-11-19T05:07:05;9.10;99.90
48936;DHT22;34745;52.276;10.528;2023-11-19T05:09:32;9.10;99.90
48936;DHT22;34745;52.276;10.528;2023-11-19T05:11:59;9.20;99.90
48936;DHT22;34745;52.276;10.528;2023-11-19T05:14:26;9.20;99.90
48936;DHT22;34745;52.276;10.528;2023-11-19T05:16:53;9.20;99.90
48936;DHT22;34745;52.276;10.528;2023-11-19T05:19:22;9.20;99.90
48936;DHT22;34745;52.276;10.528;2023-11-19T05:21:49;9.20;99.90
48936;DHT22;34745;52.276;10.528;2023-11-19T05:24:19;9.20;99.90
48936;DHT22;34745;52.276;10.528;2023-11-19T05:26:46;9.20;99.90
48936;DHT22;34745;52.276;10.528;2023-11-19T05:29:14;9.20;99.90
48936;DHT22;34745;52.276;10.528;2023-11-19T05:31:41;9.30;99.90
48936;DHT22;34745;52.276;10.528;2023-11-19T05:34:11;9.30;99.90
48936;DHT22;34745;52.276;10.528;2023-11-19T05:36:40;9.30;99.90
48936;DHT22;34745;52.276;10.528;2023-11-19T05:39:06;9.30;99.90
48936;DHT22;34745;52.276;10.528;2023-11-19T05:41:33;9.30;99.90
48936;DHT22;34745;52.276;10.528;2023-11-19T05:44:01;9.40;99.90
48936;DHT22;34745;52.276;10.528;2023-11-19T05:46:28;9.40;99.90
48936;DHT22;34745;52.276;10.528;2023-11-19T05:48:55;9.40;99.90
48936;DHT22;34745;52.276;10.528;2023-11-19T05:51:22;9.40;99.90
48936;DHT22;34745;52.276;10.528;2023-11-19T05:53:52;9.40;99.90
48936;DHT22;34745;52.276;10.528;2023-11-19T05:56:19;9.40;99.90
48936;DHT22;34745;52.276;10.528;2023-11-19T05:58:48;9.40;99.90
48936;DHT22;34745;52.276;10.528;2023-11-19T06:01:16;9.30;99.90
48936;DHT22;34745;52.276;10.528;2023-11-19T06:03:44;9.30;99.90
48936;DHT22;34745;52.276;10.528;2023-11-19T06:06:16;9.30;99.90
48936;DHT22;34745;52.276;10.528;2023-11-19T06:08:44;9.30;99.90
48936;DHT22;34745;52.276;10.528;2023-11-19T06:11:13;9.30;99.90
48936;DHT22;34745;52.276;10.528;2023-11-19T06:13:44;9.30;99.90
48936;DHT22;34745;52.276;10.528;2023-11-19T06:16:12;9.40;99.90
48936;DHT22;34745;52.276;10.528;2023-11-19T06:18:39;9.40;99.90
48936;DHT22;34745;52.276;10.528;2023-11-19T06:21:08;9.40;99.90
48936;DHT22;34745;52.276;10.528;2023-11-19T06:23:35;9.50;99.90
48936;DHT22;34745;52.276;10.528;2023-11-19T06:26:03;9.50;99.90
48936;DHT22;34745;52.276;10.528;2023-11-19T06:28:31;9.50;99.90
48936;DHT22;34745;52.276;10.528;2023-11-19T06:30:58;9.50;99.90
48936;DHT22;34745;52.276;10.528;2023-11-19T06:33:25;9.50;99.90
48936;DHT22;34745;52.276;10.528;2023-11-19T06:35:54;9.50;99.90
48936;DHT22;34745;52.276;10.528;2023-11-19T06:38:21;9.60;99.90
48936;DHT22;34745;52.276;10.528;2023-11-19T06:40:48;9.60;99.90
48936;DHT22;34745;52.276;10.528;2023-11-19T06:43:20;9.80;99.90
48936;DHT22;34745;52.276;10.528;2023-11-19T06:45:49;9.70;99.90
48936;DHT22;34745;52.276;10.528;2023-11-19T06:48:16;9.70;99.90
48936;DHT22;34745;52.276;10.528;2023-11-19T06:50:43;9.80;99.90
48936;DHT22;34745;52.276;10.528;2023-11-19T06:53:10;9.70;99.90
48936;DHT22;34745;52.276;10.528;2023-11-19T06:55:37;9.70;99.90
48936;DHT22;34745;52.276;10.528;2023-11-19T06:58:05;9.80;99.90
48936;DHT22;34745;52.276;10.528;2023-11-19T07:00:32;9.80;99.90
48936;DHT22;34745;52.276;10.528;2023-11-19T07:03:01;9.80;99.90
48936;DHT22;34745;52.276;10.528;2023-11-19T07:05:28;9.90;99.90
48936;DHT22;34745;52.276;10.528;2023-11-19T07:07:57;9.90;99.90
48936;DHT22;34745;52.276;10.528;2023-11-19T07:10:24;10.00;99.90
48936;DHT22;34745;52.276;10.528;2023-11-19T07:12:51;9.90;99.90
48936;DHT22;34745;52.276;10.528;2023-11-19T07:15:18;10.00;99.90
48936;DHT22;34745;52.276;10.528;2023-11-19T07:17:45;10.00;99.90
48936;DHT22;34745;52.276;10.528;2023-11-19T07:20:14;9.90;99.90
48936;DHT22;34745;52.276;10.528;2023-11-19T07:22:43;9.90;99.90
48936;DHT22;34745;52.276;10.528;2023-11-19T07:25:10;9.90;99.90
48936;DHT22;34745;52.276;10.528;2023-11-19T07:27:37;9.90;99.90
48936;DHT22;34745;52.276;10.528;2023-11-19T07:30:06;9.90;99.90
48936;DHT22;34745;52.276;10.528;2023-11-19T07:32:34;9.80;99.90
48936;DHT22;34745;52.276;10.528;2023-11-19T07:35:01;9.80;99.90
48936;DHT22;34745;52.276;10.528;2023-11-19T07:37:30;9.80;99.90
48936;DHT22;34745;52.276;10.528;2023-11-19T07:39:57;9.80;99.90
48936;DHT22;34745;52.276;10.528;2023-11-19T07:42:24;9.90;99.90
48936;DHT22;34745;52.276;10.528;2023-11-19T07:44:51;9.80;99.90
48936;DHT22;34745;52.276;10.528;2023-11-19T07:47:18;9.90;99.90
48936;DHT22;34745;52.276;10.528;2023-11-19T07:49:45;9.90;99.90
48936;DHT22;34745;52.276;10.528;2023-11-19T07:52:12;9.90;99.90
48936;DHT22;34745;52.276;10.528;2023-11-19T07:54:43;9.90;99.90
48936;DHT22;34745;52.276;10.528;2023-11-19T07:57:10;9.90;99.90
48936;DHT22;34745;52.276;10.528;2023-11-19T07:59:38;10.00;99.90
48936;DHT22;34745;52.276;10.528;2023-11-19T08:02:06;10.00;99.90
48936;DHT22;34745;52.276;10.528;2023-11-19T08:04:33;10.20;99.90
48936;DHT22;34745;52.276;10.528;2023-11-19T08:07:01;10.20;99.90
48936;DHT22;34745;52.276;10.528;2023-11-19T08:09:28;10.20;99.90
48936;DHT22;34745;52.276;10.528;2023-11-19T08:11:57;10.40;99.90
48936;DHT22;34745;52.276;10.528;2023-11-19T08:14:24;10.30;99.90
48936;DHT22;34745;52.276;10.528;2023-11-19T08:16:51;10.30;99.90
48936;DHT22;34745;52.276;10.528;2023-11-19T08:19:18;10.40;99.90
48936;DHT22;34745;52.276;10.528;2023-11-19T08:21:45;10.60;99.90
48936;DHT22;34745;52.276;10.528;2023-11-19T08:24:12;10.90;99.90
48936;DHT22;34745;52.276;10.528;2023-11-19T08:26:39;11.00;99.90
48936;DHT22;34745;52.276;10.528;2023-11-19T08:29:08;11.20;99.90
48936;DHT22;34745;52.276;10.528;2023-11-19T08:31:36;11.30;99.90
48936;DHT22;34745;52.276;10.528;2023-11-19T08:34:03;11.30;99.90
48936;DHT22;34745;52.276;10.528;2023-11-19T08:36:30;11.40;99.90
48936;DHT22;34745;52.276;10.528;2023-11-19T08:38:58;11.40;99.90
48936;DHT22;34745;52.276;10.528;2023-11-19T08:41:25;11.50;99.90
48936;DHT22;34745;52.276;10.528;2023-11-19T08:43:53;11.60;99.90
48936;DHT22;34745;52.276;10.528;2023-11-19T08:46:21;11.50;95.30
48936;DHT22;34745;52.276;10.528;2023-11-19T08:48:48;11.60;86.70
48936;DHT22;34745;52.276;10.528;2023-11-19T08:51:16;12.00;82.40
48936;DHT22;34745;52.276;10.528;2023-11-19T08:53:43;12.10;71.50
48936;DHT22;34745;52.276;10.528;2023-11-19T08:56:10;12.20;57.40
48936;DHT22;34745;52.276;10.528;2023-11-19T08:58:37;12.20;51.30
48936;DHT22;34745;52.276;10.528;2023-11-19T09:01:04;12.30;31.30
48936;DHT22;34745;52.276;10.528;2023-11-19T09:03:33;12.30;25.10
48936;DHT22;34745;52.276;10.528;2023-11-19T09:06:01;12.20;9.50
48936;DHT22;34745;52.276;10.528;2023-11-19T09:08:28;12.10;12.60
48936;DHT22;34745;52.276;10.528;2023-11-19T09:10:55;11.90;21.40
48936;DHT22;34745;52.276;10.528;2023-11-19T09:13:22;11.90;26.90
48936;DHT22;34745;52.276;10.528;2023-11-19T09:15:49;11.90;31.50
48936;DHT22;34745;52.276;10.528;2023-11-19T09:18:17;11.80;27.40
48936;DHT22;34745;52.276;10.528;2023-11-19T09:20:45;11.80;27.20
48936;DHT22;34745;52.276;10.528;2023-11-19T09:23:12;11.80;27.00
48936;DHT22;34745;52.276;10.528;2023-11-19T09:25:40;11.80;27.40
48936;DHT22;34745;52.276;10.528;2023-11-19T09:28:10;11.80;24.70
48936;DHT22;34745;52.276;10.528;2023-11-19T09:30:37;11.80;24.00
48936;DHT22;34745;52.276;10.528;2023-11-19T09:33:05;11.70;21.70
48936;DHT22;34745;52.276;10.528;2023-11-19T09:35:32;11.70;18.90
48936;DHT22;34745;52.276;10.528;2023-11-19T09:38:01;11.80;18.80
48936;DHT22;34745;52.276;10.528;2023-11-19T09:40:31;11.80;17.10
48936;DHT22;34745;52.276;10.528;2023-11-19T09:42:58;11.80;19.90
48936;DHT22;34745;52.276;10.528;2023-11-19T09:45:27;11.80;16.00
48936;DHT22;34745;52.276;10.528;2023-11-19T09:47:57;11.90;11.20
48936;DHT22;34745;52.276;10.528;2023-11-19T09:50:25;11.80;15.70
48936;DHT22;34745;52.276;10.528;2023-11-19T09:52:52;11.90;7.10
48936;DHT22;34745;52.276;10.528;2023-11-19T09:55:21;11.90;5.90
48936;DHT22;34745;52.276;10.528;2023-11-19T09:57:48;11.90;1.00
48936;DHT22;34745;52.276;10.528;2023-11-19T10:00:17;11.90;1.00
48936;DHT22;34745;52.276;10.528;2023-11-19T10:02:47;11.90;1.00
48936;DHT22;34745;52.276;10.528;2023-11-19T10:05:15;12.10;1.00
48936;DHT22;34745;52.276;10.528;2023-11-19T10:07:43;12.30;1.00
48936;DHT22;34745;52.276;10.528;2023-11-19T10:10:12;12.40;1.00
48936;DHT22;34745;52.276;10.528;2023-11-19T10:12:47;12.60;1.00
48936;DHT22;34745;52.276;10.528;2023-11-19T10:15:21;12.70;1.00
48936;DHT22;34745;52.276;10.528;2023-11-19T10:17:49;12.80;1.00
48936;DHT22;34745;52.276;10.528;2023-11-19T10:20:17;12.80;1.00
48936;DHT22;34745;52.276;10.528;2023-11-19T10:22:44;13.10;1.00
48936;DHT22;34745;52.276;10.528;2023-11-19T10:25:22;13.00;1.00
48936;DHT22;34745;52.276;10.528;2023-11-19T10:27:52;13.00;1.00
48936;DHT22;34745;52.276;10.528;2023-11-19T10:30:20;13.00;1.00
48936;DHT22;34745;52.276;10.528;2023-11-19T10:33:03;13.00;1.00
48936;DHT22;34745;52.276;10.528;2023-11-19T10:35:31;13.10;1.00
48936;DHT22;34745;52.276;10.528;2023-11-19T10:37:59;12.90;1.00
48936;DHT22;34745;52.276;10.528;2023-11-19T10:40:38;12.70;1.00
48936;DHT22;34745;52.276;10.528;2023-11-19T10:43:08;12.60;1.00
48936;DHT22;34745;52.276;10.528;2023-11-19T10:45:36;12.50;1.00
48936;DHT22;34745;52.276;10.528;2023-11-19T10:48:04;12.40;1.00
48936;DHT22;34745;52.276;10.528;2023-11-19T10:50:33;12.40;1.00
48936;DHT22;34745;52.276;10.528;2023-11-19T10:53:01;12.50;1.00
48936;DHT22;34745;52.276;10.528;2023-11-19T10:55:31;12.60;1.00
48936;DHT22;34745;52.276;10.528;2023-11-19T10:57:59;12.60;1.00
48936;DHT22;34745;52.276;10.528;2023-11-19T11:00:29;12.70;1.00
48936;DHT22;34745;52.276;10.528;2023-11-19T11:03:01;12.70;1.00
48936;DHT22;34745;52.276;10.528;2023-11-19T11:05:29;12.70;1.00
48936;DHT22;34745;52.276;10.528;2023-11-19T11:08:00;12.90;1.00
48936;DHT22;34745;52.276;10.528;2023-11-19T11:10:28;13.00;1.00
48936;DHT22;34745;52.276;10.528;2023-11-19T11:13:02;13.10;1.00
48936;DHT22;34745;52.276;10.528;2023-11-19T11:15:32;13.20;1.00
48936;DHT22;34745;52.276;10.528;2023-11-19T11:18:00;13.20;1.00
48936;DHT22;34745;52.276;10.528;2023-11-19T11:20:29;13.20;1.00
48936;DHT22;34745;52.276;10.528;2023-11-19T11:23:11;13.30;1.00
48936;DHT22;34745;52.276;10.528;2023-11-19T11:25:51;13.30;1.00
48936;DHT22;34745;52.276;10.528;2023-11-19T11:28:31;13.30;1.00
48936;DHT22;34745;52.276;10.528;2023-11-19T11:31:12;13.30;1.00
48936;DHT22;34745;52.276;10.528;2023-11-19T11:34:06;13.50;1.00
48936;DHT22;34745;52.276;10.528;2023-11-19T11:36:43;13.30;1.00
48936;DHT22;34745;52.276;10.528;2023-11-19T11:39:14;13.40;1.00
48936;DHT22;34745;52.276;10.528;2023-11-19T11:41:42;13.40;1.00
48936;DHT22;34745;52.276;10.528;2023-11-19T11:44:09;13.40;1.00
48936;DHT22;34745;52.276;10.528;2023-11-19T11:46:56;13.40;1.00
48936;DHT22;34745;52.276;10.528;2023-11-19T11:49:28;13.40;1.00
48936;DHT22;34745;52.276;10.528;2023-11-19T11:52:00;13.40;1.00
48936;DHT22;34745;52.276;10.528;2023-11-19T11:54:28;13.50;1.00
48936;DHT22;34745;52.276;10.528;2023-11-19T11:57:08;13.60;1.00
48936;DHT22;34745;52.276;10.528;2023-11-19T11:59:46;13.70;1.00
48936;DHT22;34745;52.276;10.528;2023-11-19T12:02:17;13.70;1.00
48936;DHT22;34745;52.276;10.528;2023-11-19T12:04:47;13.70;1.00
48936;DHT22;34745;52.276;10.528;2023-11-19T12:07:17;13.70;1.00
48936;DHT22;34745;52.276;10.528;2023-11-19T12:09:48;13.90;1.00
48936;DHT22;34745;52.276;10.528;2023-11-19T12:12:25;13.90;1.00
48936;DHT22;34745;52.276;10.528;2023-11-19T12:15:04;14.00;1.00
48936;DHT22;34745;52.276;10.528;2023-11-19T12:17:48;14.00;1.00
48936;DHT22;34745;52.276;10.528;2023-11-19T12:20:17;14.00;1.00
48936;DHT22;34745;52.276;10.528;2023-11-19T12:23:04;14.00;1.00
48936;DHT22;34745;52.276;10.528;2023-11-19T12:25:34;14.00;1.00
48936;DHT22;34745;52.276;10.528;2023-11-19T12:28:02;14.00;1.00
48936;DHT22;34745;52.276;10.528;2023-11-19T12:30:31;14.00;1.00
48936;DHT22;34745;52.276;10.528;2023-11-19T12:33:08;13.80;1.00
48936;DHT22;34745;52.276;10.528;2023-11-19T12:35:39;13.70;1.00
48936;DHT22;34745;52.276;10.528;2023-11-19T12:38:06;13.40;1.00
48936;DHT22;34745;52.276;10.528;2023-11-19T12:40:33;13.20;1.00
48936;DHT22;34745;52.276;10.528;2023-11-19T12:43:00;13.20;1.00
48936;DHT22;34745;52.276;10.528;2023-11-19T12:45:34;13.30;1.00
48936;DHT22;34745;52.276;10.528;2023-11-19T12:48:07;13.10;1.00
48936;DHT22;34745;52.276;10.528;2023-11-19T12:50:53;13.20;1.00
48936;DHT22;34745;52.276;10.528;2023-11-19T12:53:21;13.30;1.00
48936;DHT22;34745;52.276;10.528;2023-11-19T12:55:49;13.20;1.00
48936;DHT22;34745;52.276;10.528;2023-11-19T12:58:29;13.20;1.00
48936;DHT22;34745;52.276;10.528;2023-11-19T13:01:00;13.20;1.00
48936;DHT22;34745;52.276;10.528;2023-11-19T13:03:33;13.30;1.00
48936;DHT22;34745;52.276;10.528;2023-11-19T13:06:04;13.30;1.00
48936;DHT22;34745;52.276;10.528;2023-11-19T13:08:39;13.20;1.00
48936;DHT22;34745;52.276;10.528;2023-11-19T13:11:07;13.20;1.00
48936;DHT22;34745;52.276;10.528;2023-11-19T13:13:56;13.00;1.00
48936;DHT22;34745;52.276;10.528;2023-11-19T13:16:23;13.00;1.00
48936;DHT22;34745;52.276;10.528;2023-11-19T13:18:52;13.00;1.00
48936;DHT22;34745;52.276;10.528;2023-11-19T13:21:19;12.90;1.00
48936;DHT22;34745;52.276;10.528;2023-11-19T13:23:46;12.80;1.00
48936;DHT22;34745;52.276;10.528;2023-11-19T13:26:13;12.80;1.00
48936;DHT22;34745;52.276;10.528;2023-11-19T13:28:40;12.80;1.00
48936;DHT22;34745;52.276;10.528;2023-11-19T13:31:07;12.70;1.00
48936;DHT22;34745;52.276;10.528;2023-11-19T13:33:34;12.70;1.00
48936;DHT22;34745;52.276;10.528;2023-11-19T13:36:05;12.70;1.00
48936;DHT22;34745;52.276;10.528;2023-11-19T13:38:38;12.70;1.00
48936;DHT22;34745;52.276;10.528;2023-11-19T13:41:07;12.70;1.00
48936;DHT22;34745;52.276;10.528;2023-11-19T13:43:36;12.60;1.00
48936;DHT22;34745;52.276;10.528;2023-11-19T13:46:05;12.70;1.00
48936;DHT22;34745;52.276;10.528;2023-11-19T13:48:32;12.70;1.00
48936;DHT22;34745;52.276;10.528;2023-11-19T13:51:00;12.70;1.00
48936;DHT22;34745;52.276;10.528;2023-11-19T13:53:32;12.60;1.00
48936;DHT22;34745;52.276;10.528;2023-11-19T13:56:18;12.60;1.00
48936;DHT22;34745;52.276;10.528;2023-11-19T13:58:45;12.60;1.00
48936;DHT22;34745;52.276;10.528;2023-11-19T14:01:12;12.60;1.00
48936;DHT22;34745;52.276;10.528;2023-11-19T14:03:40;12.50;1.00
48936;DHT22;34745;52.276;10.528;2023-11-19T14:06:08;12.50;1.00
48936;DHT22;34745;52.276;10.528;2023-11-19T14:08:37;12.40;1.00
48936;DHT22;34745;52.276;10.528;2023-11-19T14:11:05;12.40;1.00
48936;DHT22;34745;52.276;10.528;2023-11-19T14:13:33;12.40;1.00
48936;DHT22;34745;52.276;10.528;2023-11-19T14:16:01;12.40;1.00
48936;DHT22;34745;52.276;10.528;2023-11-19T14:18:28;12.40;1.00
48936;DHT22;34745;52.276;10.528;2023-11-19T14:20:55;12.40;1.00
48936;DHT22;34745;52.276;10.528;2023-11-19T14:23:22;12.30;1.00
48936;DHT22;34745;52.276;10.528;2023-11-19T14:25:52;12.30;1.00
48936;DHT22;34745;52.276;10.528;2023-11-19T14:28:19;12.30;1.00
48936;DHT22;34745;52.276;10.528;2023-11-19T14:30:46;12.20;1.00
48936;DHT22;34745;52.276;10.528;2023-11-19T14:33:14;12.20;1.00
48936;DHT22;34745;52.276;10.528;2023-11-19T14:35:41;12.20;1.00
48936;DHT22;34745;52.276;10.528;2023-11-19T14:38:08;12.30;1.00
48936;DHT22;34745;52.276;10.528;2023-11-19T14:40:38;12.20;1.00
48936;DHT22;34745;52.276;10.528;2023-11-19T14:43:10;12.20;1.00
48936;DHT22;34745;52.276;10.528;2023-11-19T14:45:37;12.20;1.00
48936;DHT22;34745;52.276;10.528;2023-11-19T14:48:15;12.20;1.00
48936;DHT22;34745;52.276;10.528;2023-11-19T14:50:42;12.20;1.00
48936;DHT22;34745;52.276;10.528;2023-11-19T14:53:11;12.10;1.00
48936;DHT22;34745;52.276;10.528;2023-11-19T14:55:38;12.10;1.00
48936;DHT22;34745;52.276;10.528;2023-11-19T14:58:05;12.10;1.00
48936;DHT22;34745;52.276;10.528;2023-11-19T15:00:38;12.00;1.00
48936;DHT22;34745;52.276;10.528;2023-11-19T15:03:05;12.00;1.00
48936;DHT22;34745;52.276;10.528;2023-11-19T15:05:34;12.00;1.00
48936;DHT22;34745;52.276;10.528;2023-11-19T15:08:01;12.00;1.00
48936;DHT22;34745;52.276;10.528;2023-11-19T15:10:30;12.00;1.00
48936;DHT22;34745;52.276;10.528;2023-11-19T15:12:57;12.00;1.00
48936;DHT22;34745;52.276;10.528;2023-11-19T15:15:25;12.00;1.00
48936;DHT22;34745;52.276;10.528;2023-11-19T15:17:56;12.00;1.00
48936;DHT22;34745;52.276;10.528;2023-11-19T15:20:23;12.00;1.00
48936;DHT22;34745;52.276;10.528;2023-11-19T15:22:50;12.00;1.00
48936;DHT22;34745;52.276;10.528;2023-11-19T15:25:18;12.00;1.00
48936;DHT22;34745;52.276;10.528;2023-11-19T15:27:44;12.00;1.00
48936;DHT22;34745;52.276;10.528;2023-11-19T15:30:12;11.90;1.00
48936;DHT22;34745;52.276;10.528;2023-11-19T15:32:40;12.00;1.00
48936;DHT22;34745;52.276;10.528;2023-11-19T15:35:09;12.00;1.00
48936;DHT22;34745;52.276;10.528;2023-11-19T15:37:40;11.90;1.00
48936;DHT22;34745;52.276;10.528;2023-11-19T15:40:11;12.00;1.00